createdAt,value
2023-05-10T00:02:07.570Z,15.60
2023-05-10T00:05:18.623Z,15.70
2023-05-10T00:08:07.205Z,15.53
2023-05-10T00:10:42.445Z,15.87
2023-05-10T00:13:18.704Z,15.80
2023-05-10T00:16:27.322Z,15.60
2023-05-10T00:19:04.140Z,16.13
2023-05-10T00:21:57.347Z,15.83
2023-05-10T00:24:26.178Z,15.97
2023-05-10T00:26:56.128Z,16.03
2023-05-10T00:29:26.230Z,16.20
2023-05-10T00:31:54.404Z,16.23
2023-05-10T00:34:24.045Z,16.47
2023-05-10T00:36:52.311Z,16.30
2023-05-10T00:39:20.507Z,16.20
2023-05-10T00:41:48.845Z,16.13
2023-05-10T00:44:16.977Z,16.43
2023-05-10T00:46:45.162Z,16.23
2023-05-10T00:49:13.833Z,15.90
2023-05-10T00:51:44.021Z,15.80
2023-05-10T00:54:32.213Z,15.60
2023-05-10T00:57:11.770Z,15.73
2023-05-10T00:59:40.156Z,16.03
2023-05-10T01:02:09.237Z,16.00
2023-05-10T01:04:38.262Z,15.40
2023-05-10T01:07:07.948Z,15.60
2023-05-10T01:09:36.713Z,14.70
2023-05-10T01:12:08.714Z,14.90
2023-05-10T01:14:38.356Z,14.40
2023-05-10T01:17:08.257Z,14.70
2023-05-10T01:19:39.100Z,14.90
2023-05-10T01:22:24.480Z,15.13
2023-05-10T01:25:35.035Z,14.63
2023-05-10T01:28:48.454Z,14.40
2023-05-10T01:31:30.798Z,14.80
2023-05-10T01:34:04.357Z,14.80
2023-05-10T01:36:34.891Z,14.60
2023-05-10T01:39:08.316Z,14.50
2023-05-10T01:41:45.416Z,14.37
2023-05-10T01:44:20.128Z,14.80
2023-05-10T01:46:57.818Z,14.40
2023-05-10T01:49:31.525Z,14.60
2023-05-10T01:52:15.079Z,14.50
2023-05-10T01:54:56.397Z,14.50
2023-05-10T01:57:39.700Z,14.40
2023-05-10T02:00:52.476Z,14.60
2023-05-10T02:06:41.921Z,14.70
2023-05-10T02:09:20.656Z,14.67
2023-05-10T02:11:50.951Z,14.90
2023-05-10T02:14:21.051Z,14.70
2023-05-10T02:17:06.852Z,15.30
2023-05-10T02:19:43.011Z,15.00
2023-05-10T02:23:04.012Z,14.67
2023-05-10T02:25:39.765Z,15.20
2023-05-10T02:32:13.021Z,15.10
2023-05-10T02:37:55.715Z,15.37
2023-05-10T02:40:53.997Z,15.27
2023-05-10T02:43:53.765Z,15.20
2023-05-10T02:46:28.236Z,15.00
2023-05-10T02:48:56.761Z,15.30
2023-05-10T02:51:34.765Z,14.80
2023-05-10T02:54:13.388Z,15.07
2023-05-10T02:56:51.674Z,14.90
2023-05-10T02:59:20.009Z,14.80
2023-05-10T03:01:48.425Z,14.77
2023-05-10T03:04:41.099Z,14.50
2023-05-10T03:07:20.417Z,14.30
2023-05-10T03:09:50.694Z,14.40
2023-05-10T03:13:08.287Z,14.40
2023-05-10T03:15:57.772Z,14.50
2023-05-10T03:18:36.020Z,14.60
2023-05-10T03:21:24.638Z,14.50
2023-05-10T03:24:02.132Z,14.40
2023-05-10T03:26:43.917Z,14.90
2023-05-10T03:29:13.548Z,14.90
2023-05-10T03:31:41.830Z,15.00
2023-05-10T03:34:10.066Z,14.80
2023-05-10T03:36:38.253Z,14.80
2023-05-10T03:39:06.396Z,14.57
2023-05-10T03:41:34.530Z,14.70
2023-05-10T03:44:21.722Z,14.70
2023-05-10T03:46:50.217Z,14.70
2023-05-10T03:49:23.590Z,14.60
2023-05-10T03:52:05.015Z,14.87
2023-05-10T03:54:50.539Z,15.07
2023-05-10T03:57:32.678Z,15.30
2023-05-10T04:00:27.943Z,15.10
2023-05-10T04:03:20.616Z,14.97
2023-05-10T04:05:49.113Z,15.20
2023-05-10T04:08:23.124Z,15.50
2023-05-10T04:11:30.793Z,15.20
2023-05-10T04:14:01.575Z,16.03
2023-05-10T04:16:36.660Z,15.50
2023-05-10T04:19:28.957Z,15.30
2023-05-10T04:22:25.507Z,15.30
2023-05-10T04:28:58.648Z,15.47
2023-05-10T04:32:09.637Z,15.90
2023-05-10T04:35:07.154Z,15.70
2023-05-10T04:38:17.204Z,15.83
2023-05-10T04:41:05.755Z,15.47
2023-05-10T04:43:46.202Z,16.30
2023-05-10T04:46:37.293Z,15.80
2023-05-10T04:49:26.958Z,15.73
2023-05-10T04:52:13.763Z,15.83
2023-05-10T04:54:56.116Z,16.20
2023-05-10T04:57:54.076Z,16.00
2023-05-10T05:00:52.013Z,15.73
2023-05-10T05:07:09.412Z,15.80
2023-05-10T05:12:54.984Z,16.07
2023-05-10T05:15:47.843Z,16.07
2023-05-10T05:18:31.760Z,15.50
2023-05-10T05:21:24.814Z,16.07
2023-05-10T05:24:21.542Z,16.03
2023-05-10T05:30:40.655Z,15.77
2023-05-10T05:33:34.980Z,15.40
2023-05-10T05:36:44.659Z,15.70
2023-05-10T05:39:26.893Z,15.83
2023-05-10T05:42:05.176Z,16.10
2023-05-10T05:45:11.659Z,15.73
2023-05-10T05:48:29.298Z,15.83
2023-05-10T05:51:20.319Z,15.50
2023-05-10T05:54:09.604Z,15.47
2023-05-10T05:57:08.522Z,16.10
2023-05-10T06:00:23.179Z,15.50
2023-05-10T06:03:46.903Z,15.60
2023-05-10T06:06:42.560Z,15.80
2023-05-10T06:09:31.722Z,15.77
2023-05-10T06:12:30.650Z,15.50
2023-05-10T06:15:32.443Z,16.17
2023-05-10T06:18:38.749Z,16.20
2023-05-10T06:21:27.029Z,15.97
2023-05-10T06:24:31.264Z,15.63
2023-05-10T06:30:58.993Z,16.10
2023-05-10T06:36:40.770Z,15.60
2023-05-10T06:39:29.461Z,16.00
2023-05-10T06:42:24.688Z,15.73
2023-05-10T06:48:25.641Z,15.70
2023-05-10T06:51:18.317Z,15.77
2023-05-10T06:54:03.699Z,15.90
2023-05-10T06:57:23.318Z,15.90
2023-05-10T07:00:29.626Z,15.80
2023-05-10T07:03:27.951Z,16.13
2023-05-10T07:06:43.928Z,15.93
2023-05-10T07:09:53.793Z,15.63
2023-05-10T07:12:42.376Z,15.67
2023-05-10T07:15:40.090Z,16.23
2023-05-10T07:18:43.438Z,15.80
2023-05-10T07:21:52.727Z,15.67
2023-05-10T07:24:44.726Z,16.00
2023-05-10T07:34:40.719Z,13.30
2023-05-10T07:37:34.976Z,14.00
2023-05-10T07:40:28.930Z,13.70
2023-05-10T07:43:36.307Z,13.67
2023-05-10T07:46:28.619Z,13.23
2023-05-10T07:49:53.764Z,13.70
2023-05-10T07:53:03.668Z,13.50
2023-05-10T07:56:15.609Z,13.60
2023-05-10T08:05:30.569Z,13.67
2023-05-10T08:08:24.752Z,14.60
2023-05-10T08:11:16.917Z,13.90
2023-05-10T08:17:11.678Z,13.47
2023-05-10T08:20:05.543Z,14.83
2023-05-10T08:26:03.489Z,14.00
2023-05-10T08:39:19.466Z,14.17
2023-05-10T08:42:13.383Z,13.50
2023-05-10T08:45:37.162Z,14.10
2023-05-10T08:52:03.370Z,14.03
2023-05-10T08:55:06.752Z,13.63
2023-05-10T08:58:12.715Z,13.77
2023-05-10T09:00:56.450Z,13.70
2023-05-10T09:14:29.122Z,13.60
2023-05-10T09:18:01.116Z,14.10
2023-05-10T09:21:01.397Z,13.73
2023-05-10T09:24:09.496Z,13.50
2023-05-10T09:27:12.044Z,13.93
2023-05-10T09:30:27.749Z,13.80
2023-05-10T09:34:26.812Z,13.87
2023-05-10T09:47:34.205Z,13.67
2023-05-10T09:50:51.734Z,13.30
2023-05-10T09:53:59.274Z,13.70
2023-05-10T10:00:56.341Z,14.40
2023-05-10T10:04:02.579Z,14.00
2023-05-10T10:07:28.083Z,14.10
2023-05-10T10:10:26.836Z,15.17
2023-05-10T10:20:16.077Z,13.13
2023-05-10T10:22:47.488Z,13.33
2023-05-10T10:25:18.284Z,12.90
2023-05-10T10:27:57.707Z,12.97
2023-05-10T10:30:32.457Z,13.20
2023-05-10T10:33:28.944Z,13.37
2023-05-10T10:40:22.199Z,13.03
2023-05-10T10:44:09.713Z,13.00
2023-05-10T10:47:01.598Z,12.70
2023-05-10T10:49:33.930Z,12.70
2023-05-10T10:52:23.022Z,15.03
2023-05-10T10:54:54.907Z,15.50
2023-05-10T11:01:45.216Z,15.97
2023-05-10T11:04:36.724Z,15.90
2023-05-10T11:08:11.517Z,15.63
2023-05-10T11:11:37.948Z,15.30
2023-05-10T11:14:40.872Z,15.30
2023-05-10T11:17:52.358Z,15.10
2023-05-10T11:32:35.076Z,15.37
2023-05-10T11:43:47.811Z,15.30
2023-05-10T11:47:25.678Z,15.40
2023-05-10T11:49:56.735Z,15.40
2023-05-10T11:52:25.726Z,15.40
2023-05-10T11:54:54.418Z,15.80
2023-05-10T11:57:27.904Z,16.57
2023-05-10T11:59:59.599Z,15.87
2023-05-10T12:02:28.045Z,15.80
2023-05-10T12:04:58.078Z,15.57
2023-05-10T12:08:12.981Z,15.83
2023-05-10T12:14:37.748Z,16.27
2023-05-10T12:17:35.171Z,15.93
2023-05-10T12:20:17.282Z,15.33
2023-05-10T12:27:14.982Z,15.37
2023-05-10T12:30:13.678Z,15.20
2023-05-10T12:33:17.689Z,15.20
2023-05-10T12:36:27.089Z,15.10
2023-05-10T12:39:25.313Z,15.23
2023-05-10T12:46:04.761Z,15.00
2023-05-10T12:49:18.068Z,14.90
2023-05-10T12:57:50.375Z,14.83
2023-05-10T13:00:22.294Z,15.00
2023-05-10T13:02:54.533Z,14.80
2023-05-10T13:05:55.886Z,14.73
2023-05-10T13:09:13.371Z,14.53
2023-05-10T13:15:44.321Z,14.60
2023-05-10T13:18:51.868Z,14.27
2023-05-10T13:25:26.905Z,14.33
2023-05-10T13:28:00.953Z,13.87
2023-05-10T13:30:30.567Z,13.90
2023-05-10T13:33:02.146Z,14.20
2023-05-10T13:36:10.228Z,14.73
2023-05-10T13:39:32.225Z,13.90
2023-05-10T13:42:37.891Z,14.00
2023-05-10T13:45:34.912Z,14.13
2023-05-10T13:51:54.622Z,13.77
2023-05-10T13:58:29.781Z,13.97
2023-05-10T14:05:02.021Z,13.90
2023-05-10T14:11:43.407Z,12.30
2023-05-10T14:17:43.308Z,13.60
2023-05-10T14:20:42.667Z,13.17
2023-05-10T14:23:18.253Z,13.30
2023-05-10T14:35:47.815Z,13.90
2023-05-10T14:38:22.712Z,13.50
2023-05-10T14:40:55.108Z,12.90
2023-05-10T14:43:24.051Z,13.10
2023-05-10T14:47:43.988Z,13.10
2023-05-10T14:53:00.391Z,13.80
2023-05-10T14:59:12.657Z,12.77
2023-05-10T15:05:22.904Z,13.37
2023-05-10T15:08:19.663Z,13.63
2023-05-10T15:11:24.215Z,13.13
2023-05-10T15:14:14.472Z,13.80
2023-05-10T15:17:24.237Z,14.67
2023-05-10T15:19:55.354Z,14.10
2023-05-10T15:22:25.026Z,13.80
2023-05-10T15:24:53.287Z,13.70
2023-05-10T15:27:21.431Z,13.57
2023-05-10T15:29:49.701Z,14.40
2023-05-10T15:32:18.375Z,13.40
2023-05-10T15:34:46.814Z,15.03
2023-05-10T15:37:15.037Z,13.90
2023-05-10T15:39:44.629Z,13.77
2023-05-10T15:42:12.867Z,13.73
2023-05-10T15:44:41.025Z,13.90
2023-05-10T15:47:09.207Z,13.40
2023-05-10T15:49:37.458Z,13.30
2023-05-10T15:52:05.599Z,13.40
2023-05-10T15:54:33.753Z,13.33
2023-05-10T15:57:03.318Z,13.60
2023-05-10T15:59:31.664Z,13.73
2023-05-10T16:01:59.969Z,13.17
2023-05-10T16:04:28.256Z,13.10
2023-05-10T16:06:56.410Z,12.80
2023-05-10T16:09:24.605Z,12.90
2023-05-10T16:11:52.871Z,13.60
2023-05-10T16:14:24.663Z,13.00
2023-05-10T16:16:53.185Z,11.90
2023-05-10T16:19:21.660Z,12.40
2023-05-10T16:21:50.057Z,12.70
2023-05-10T16:24:18.239Z,12.30
2023-05-10T16:26:47.146Z,12.37
2023-05-10T16:29:15.294Z,12.30
2023-05-10T16:31:44.810Z,12.10
2023-05-10T16:34:21.305Z,12.50
2023-05-10T16:36:52.883Z,12.40
2023-05-10T16:39:27.629Z,12.40
2023-05-10T16:41:58.450Z,12.70
2023-05-10T16:44:27.236Z,12.60
2023-05-10T16:46:58.637Z,12.47
2023-05-10T16:49:31.583Z,13.10
2023-05-10T16:52:02.891Z,13.20
2023-05-10T16:54:32.028Z,13.10
2023-05-10T16:57:01.684Z,13.20
2023-05-10T16:59:31.852Z,13.30
2023-05-10T17:02:05.522Z,13.90
2023-05-10T17:04:36.681Z,14.00
2023-05-10T17:07:09.874Z,14.87
2023-05-10T17:09:38.990Z,14.17
2023-05-10T17:12:11.544Z,14.37
2023-05-10T17:14:41.909Z,13.83
2023-05-10T17:17:38.401Z,13.90
2023-05-10T17:20:51.080Z,14.10
2023-05-10T17:23:59.093Z,13.23
2023-05-10T17:27:06.850Z,12.73
2023-05-10T17:29:35.671Z,13.07
2023-05-10T17:32:03.983Z,13.80
2023-05-10T17:34:35.390Z,13.30
2023-05-10T17:37:05.018Z,13.90
2023-05-10T17:39:37.507Z,14.63
2023-05-10T17:42:08.947Z,13.20
2023-05-10T17:44:38.572Z,13.50
2023-05-10T17:47:08.263Z,14.10
2023-05-10T17:49:40.981Z,14.40
2023-05-10T17:52:11.263Z,14.50
2023-05-10T17:54:40.814Z,15.10
2023-05-10T17:57:12.888Z,15.27
2023-05-10T17:59:42.677Z,14.53
2023-05-10T18:02:13.304Z,15.03
2023-05-10T18:05:20.807Z,15.53
2023-05-10T18:08:15.412Z,14.57
2023-05-10T18:17:42.514Z,17.80
2023-05-10T18:26:49.958Z,14.50
2023-05-10T18:29:24.845Z,14.80
2023-05-10T18:31:55.249Z,14.50
2023-05-10T18:34:33.823Z,15.10
2023-05-10T18:37:24.948Z,14.77
2023-05-10T18:40:00.499Z,15.37
2023-05-10T18:42:49.729Z,14.40
2023-05-10T18:45:46.207Z,14.80
2023-05-10T18:48:38.424Z,15.03
2023-05-10T18:51:48.811Z,15.40
2023-05-10T18:55:04.905Z,14.70
2023-05-10T18:57:49.212Z,14.43
2023-05-10T19:04:18.984Z,14.10
2023-05-10T19:07:06.532Z,14.20
2023-05-10T19:09:59.821Z,13.70
2023-05-10T19:12:36.208Z,14.40
2023-05-10T19:15:30.956Z,15.67
2023-05-10T19:18:18.892Z,15.23
2023-05-10T19:20:56.878Z,14.07
2023-05-10T19:23:39.292Z,14.73
2023-05-10T19:26:18.667Z,15.20
2023-05-10T19:29:08.676Z,15.30
2023-05-10T19:31:58.377Z,14.13
2023-05-10T19:34:56.163Z,14.50
2023-05-10T19:40:46.890Z,14.10
2023-05-10T19:43:22.274Z,13.60
2023-05-10T19:46:12.842Z,13.87
2023-05-10T19:48:51.005Z,14.57
2023-05-10T19:51:19.922Z,13.70
2023-05-10T19:53:49.012Z,13.60
2023-05-10T19:56:18.714Z,13.30
2023-05-10T19:58:48.275Z,13.30
2023-05-10T20:01:16.725Z,13.77
2023-05-10T20:04:02.300Z,13.20
2023-05-10T20:06:50.138Z,13.27
2023-05-10T20:09:32.436Z,13.13
2023-05-10T20:12:26.371Z,12.70
2023-05-10T20:15:10.979Z,13.00
2023-05-10T20:18:03.773Z,12.90
2023-05-10T20:21:05.884Z,13.30
2023-05-10T20:30:03.843Z,13.10
2023-05-10T20:32:52.488Z,12.80
2023-05-10T20:35:43.947Z,13.00
2023-05-10T20:38:16.849Z,13.40
2023-05-10T20:41:03.384Z,13.13
2023-05-10T20:43:57.109Z,13.50
2023-05-10T20:46:43.506Z,13.00
2023-05-10T20:49:59.785Z,13.30
2023-05-10T20:52:48.270Z,13.17
2023-05-10T20:55:45.058Z,13.00
2023-05-10T20:58:29.219Z,13.07
2023-05-10T21:01:34.510Z,13.40
2023-05-10T21:04:24.161Z,13.40
2023-05-10T21:07:28.705Z,13.40
2023-05-10T21:10:22.209Z,13.53
2023-05-10T21:13:31.309Z,13.27
2023-05-10T21:19:24.453Z,12.50
2023-05-10T21:22:27.362Z,13.43
2023-05-10T21:25:18.355Z,13.43
2023-05-10T21:28:27.987Z,14.00
2023-05-10T21:30:59.814Z,14.17
2023-05-10T21:33:53.634Z,14.10
2023-05-10T21:36:21.947Z,13.47
2023-05-10T21:39:31.939Z,12.90
2023-05-10T21:42:06.996Z,13.60
2023-05-10T21:45:08.965Z,14.17
2023-05-10T21:48:02.539Z,13.53
2023-05-10T21:50:44.900Z,14.10
2023-05-10T21:53:42.583Z,13.60
2023-05-10T21:56:33.122Z,13.77
2023-05-10T21:59:20.170Z,14.13
2023-05-10T22:02:08.576Z,13.80
2023-05-10T22:04:49.548Z,14.10
2023-05-10T22:07:53.715Z,12.90
2023-05-10T22:10:44.993Z,12.77
2023-05-10T22:13:27.843Z,12.80
2023-05-10T22:18:48.310Z,12.40
2023-05-10T22:21:16.621Z,12.63
2023-05-10T22:23:44.868Z,12.70
2023-05-10T22:26:27.984Z,12.50
2023-05-10T22:29:33.578Z,12.50
2023-05-10T22:32:31.956Z,12.50
2023-05-10T22:35:18.613Z,13.20
2023-05-10T22:38:05.042Z,12.60
2023-05-10T22:40:45.417Z,12.60
2023-05-10T22:43:19.062Z,12.70
2023-05-10T22:46:29.664Z,12.37
2023-05-10T22:49:02.395Z,12.63
2023-05-10T22:51:46.707Z,12.77
2023-05-10T22:54:36.253Z,12.70
2023-05-10T23:00:24.316Z,12.60
2023-05-10T23:03:13.774Z,12.60
2023-05-10T23:06:05.837Z,12.70
2023-05-10T23:09:02.393Z,12.90
2023-05-10T23:11:47.010Z,12.07
2023-05-10T23:14:45.706Z,12.13
2023-05-10T23:17:28.066Z,12.20
2023-05-10T23:20:19.766Z,12.97
2023-05-10T23:23:11.907Z,12.40
2023-05-10T23:25:55.332Z,12.60
2023-05-10T23:28:32.875Z,12.57
2023-05-10T23:31:47.712Z,12.40
2023-05-10T23:34:55.862Z,12.40
2023-05-10T23:37:39.006Z,12.30
2023-05-10T23:40:08.821Z,12.97
2023-05-10T23:42:37.215Z,12.50
2023-05-10T23:45:06.353Z,12.10
2023-05-10T23:47:34.613Z,12.30
2023-05-10T23:50:05.364Z,12.47
2023-05-10T23:52:48.997Z,12.83
2023-05-10T23:55:35.954Z,12.70
2023-05-10T23:58:31.888Z,12.70
